VKG014 ENVA-LEPA
Flight info
| Callsign | VKG014 |
|---|---|
| Flight time | N/A |
| Altitude | 34000 |
| Route | UTUNA DCT REXMI DCT LIMGO/N0447F350 DCT SUTAL DCT GTQ DCT POGOL DCT LASAT DCT MOROK DCT GILIR DCT GEVEA DCT INCUS DCT BALSI DCT RETNO DCT TUPOX DCT MTG DCT DIVKO DCT VATIR DCT PIVUS DCT BODEQ DCT VERSO L129 LUNIK |
| Aircraft | A321/M-SDE2E3FGHIJ1RWXYZ/LB2 |
Departure
| Time | 2026-04-28 08:52 |
|---|---|
| Airport | Trondheim Airport, Værnes (ENVA) |
Arrival
| Time | N/A |
|---|---|
| Airport | Palma de Mallorca Airport (LEPA) |
| Time | Latitude | Longitude | Altitude | Speed | Heading |
|---|---|---|---|---|---|
| 2026-04-28 08:31 | 63.45345 | 10.92274 | 39 ft | 0 kts | 270° |
| 2026-04-28 08:43 | 63.45345 | 10.92287 | 39 ft | 4 kts | 270° |
| 2026-04-28 08:43 | 63.45344 | 10.92347 | 41 ft | 4 kts | 270° |
| 2026-04-28 08:43 | 63.45344 | 10.92395 | 42 ft | 4 kts | 289° |
| 2026-04-28 08:44 | 63.45330 | 10.92430 | 40 ft | 4 kts | 353° |
| 2026-04-28 08:44 | 63.45326 | 10.92432 | 41 ft | 4 kts | 0° |
| 2026-04-28 08:44 | 63.45352 | 10.92432 | 39 ft | 2 kts | 0° |
| 2026-04-28 08:44 | 63.45354 | 10.92432 | 39 ft | 0 kts | 0° |
| 2026-04-28 08:46 | 63.45381 | 10.92432 | 42 ft | 9 kts | 0° |
| 2026-04-28 08:46 | 63.45444 | 10.92433 | 42 ft | 9 kts | 0° |
| 2026-04-28 08:47 | 63.45499 | 10.92433 | 42 ft | 7 kts | 359° |
| 2026-04-28 08:47 | 63.45556 | 10.92424 | 42 ft | 10 kts | 355° |
| 2026-04-28 08:47 | 63.45600 | 10.92343 | 42 ft | 8 kts | 281° |
| 2026-04-28 08:47 | 63.45597 | 10.92151 | 41 ft | 17 kts | 268° |
| 2026-04-28 08:48 | 63.45596 | 10.91822 | 39 ft | 25 kts | 270° |
| 2026-04-28 08:48 | 63.45596 | 10.91443 | 39 ft | 24 kts | 270° |
| 2026-04-28 08:48 | 63.45596 | 10.91070 | 35 ft | 24 kts | 270° |
| 2026-04-28 08:48 | 63.45598 | 10.90704 | 34 ft | 23 kts | 270° |
| 2026-04-28 08:49 | 63.45598 | 10.90345 | 32 ft | 23 kts | 270° |
| 2026-04-28 08:49 | 63.45599 | 10.89992 | 30 ft | 23 kts | 270° |
| 2026-04-28 08:49 | 63.45599 | 10.89643 | 29 ft | 22 kts | 270° |
| 2026-04-28 08:49 | 63.45599 | 10.89307 | 29 ft | 21 kts | 270° |
| 2026-04-28 08:50 | 63.45600 | 10.88999 | 29 ft | 16 kts | 270° |
| 2026-04-28 08:50 | 63.45608 | 10.88835 | 29 ft | 9 kts | 290° |
| 2026-04-28 08:50 | 63.45643 | 10.88727 | 29 ft | 8 kts | 316° |
| 2026-04-28 08:50 | 63.45691 | 10.88677 | 28 ft | 9 kts | 349° |
| 2026-04-28 08:51 | 63.45752 | 10.88697 | 29 ft | 9 kts | 40° |
| 2026-04-28 08:51 | 63.45766 | 10.88873 | 29 ft | 21 kts | 90° |
| 2026-04-28 08:51 | 63.45764 | 10.89742 | 30 ft | 91 kts | 90° |
| 2026-04-28 08:51 | 63.45762 | 10.91602 | 38 ft | 146 kts | 90° |
| 2026-04-28 08:52 | 63.45762 | 10.94107 | 345 ft | 162 kts | 90° |
| 2026-04-28 08:52 | 63.45760 | 10.96590 | 1077 ft | 160 kts | 90° |
| 2026-04-28 08:52 | 63.45754 | 10.99086 | 1776 ft | 162 kts | 91° |
| 2026-04-28 08:52 | 63.45743 | 11.01728 | 2085 ft | 180 kts | 91° |
| 2026-04-28 08:53 | 63.45731 | 11.04676 | 2354 ft | 198 kts | 91° |
| 2026-04-28 08:53 | 63.45723 | 11.07855 | 2693 ft | 212 kts | 91° |
| 2026-04-28 08:53 | 63.45707 | 11.11250 | 3079 ft | 224 kts | 90° |
| 2026-04-28 08:53 | 63.45476 | 11.14810 | 3376 ft | 245 kts | 112° |
| 2026-04-28 08:54 | 63.44406 | 11.17847 | 3888 ft | 257 kts | 146° |
| 2026-04-28 08:54 | 63.42708 | 11.19132 | 4537 ft | 264 kts | 181° |
| 2026-04-28 08:54 | 63.40923 | 11.18182 | 5284 ft | 267 kts | 203° |
| 2026-04-28 08:54 | 63.39179 | 11.16661 | 6022 ft | 272 kts | 202° |
| 2026-04-28 08:55 | 63.37396 | 11.15144 | 6771 ft | 276 kts | 203° |
| 2026-04-28 08:55 | 63.35584 | 11.13612 | 7437 ft | 281 kts | 203° |
| 2026-04-28 08:55 | 63.33763 | 11.12077 | 8113 ft | 286 kts | 203° |
| 2026-04-28 08:55 | 63.31887 | 11.10501 | 8793 ft | 290 kts | 203° |
| 2026-04-28 08:56 | 63.29980 | 11.08904 | 9437 ft | 295 kts | 203° |
| 2026-04-28 08:56 | 63.28041 | 11.07278 | 10087 ft | 300 kts | 203° |
| 2026-04-28 08:56 | 63.26068 | 11.05628 | 10695 ft | 306 kts | 203° |
| 2026-04-28 08:56 | 63.24006 | 11.03901 | 10860 ft | 328 kts | 203° |
| 2026-04-28 08:57 | 63.21804 | 11.02057 | 10992 ft | 349 kts | 203° |
| 2026-04-28 08:57 | 63.19479 | 11.00110 | 11274 ft | 363 kts | 203° |
| 2026-04-28 08:57 | 63.17099 | 10.98128 | 11833 ft | 368 kts | 203° |
| 2026-04-28 08:57 | 63.14683 | 10.96123 | 12423 ft | 372 kts | 203° |
| 2026-04-28 08:58 | 63.12243 | 10.94102 | 13028 ft | 377 kts | 203° |
| 2026-04-28 08:58 | 63.09777 | 10.92058 | 13624 ft | 381 kts | 203° |
| 2026-04-28 08:58 | 63.07279 | 10.89989 | 14233 ft | 385 kts | 203° |
| 2026-04-28 08:58 | 63.04759 | 10.87912 | 14759 ft | 388 kts | 202° |
| 2026-04-28 08:59 | 63.02212 | 10.85830 | 15265 ft | 393 kts | 203° |
| 2026-04-28 08:59 | 62.99639 | 10.83726 | 15779 ft | 397 kts | 203° |
| 2026-04-28 08:59 | 62.97041 | 10.81595 | 16301 ft | 400 kts | 203° |
| 2026-04-28 08:59 | 62.94416 | 10.79449 | 16807 ft | 404 kts | 203° |
| 2026-04-28 09:00 | 62.91769 | 10.77290 | 17313 ft | 408 kts | 203° |
| 2026-04-28 09:00 | 62.89094 | 10.75111 | 17815 ft | 412 kts | 203° |
| 2026-04-28 09:00 | 62.86400 | 10.72918 | 18309 ft | 415 kts | 203° |
| 2026-04-28 09:00 | 62.84600 | 10.71452 | 18643 ft | 418 kts | 203° |
| 2026-04-28 09:01 | 62.81797 | 10.69640 | 19056 ft | 424 kts | 194° |
| 2026-04-28 09:01 | 62.77919 | 10.67793 | 19571 ft | 429 kts | 194° |
| 2026-04-28 09:01 | 62.75979 | 10.66876 | 19827 ft | 432 kts | 194° |
| 2026-04-28 09:01 | 62.73026 | 10.65485 | 20197 ft | 436 kts | 194° |
| 2026-04-28 09:02 | 62.70051 | 10.64086 | 20559 ft | 440 kts | 194° |
| 2026-04-28 09:02 | 62.67047 | 10.62673 | 20936 ft | 444 kts | 194° |
| 2026-04-28 09:02 | 62.64018 | 10.61240 | 21295 ft | 448 kts | 194° |
| 2026-04-28 09:02 | 62.60957 | 10.59789 | 21655 ft | 452 kts | 194° |
| 2026-04-28 09:03 | 62.57876 | 10.58337 | 22013 ft | 455 kts | 194° |
| 2026-04-28 09:03 | 62.54767 | 10.56884 | 22373 ft | 459 kts | 194° |
| 2026-04-28 09:03 | 62.51627 | 10.55419 | 22730 ft | 463 kts | 194° |
| 2026-04-28 09:03 | 62.48466 | 10.53942 | 23064 ft | 467 kts | 194° |
| 2026-04-28 09:04 | 62.45277 | 10.52452 | 23400 ft | 470 kts | 194° |
| 2026-04-28 09:04 | 62.42061 | 10.50954 | 23725 ft | 474 kts | 194° |
| 2026-04-28 09:04 | 62.38828 | 10.49453 | 24054 ft | 477 kts | 194° |
| 2026-04-28 09:04 | 62.35569 | 10.47944 | 24336 ft | 481 kts | 194° |
| 2026-04-28 09:05 | 62.32287 | 10.46427 | 24631 ft | 484 kts | 194° |
| 2026-04-28 09:05 | 62.28987 | 10.44907 | 24922 ft | 487 kts | 194° |
| 2026-04-28 09:05 | 62.25708 | 10.43399 | 25195 ft | 490 kts | 194° |
| 2026-04-28 09:05 | 62.22370 | 10.41865 | 25486 ft | 493 kts | 194° |
| 2026-04-28 09:06 | 62.19001 | 10.40322 | 25772 ft | 497 kts | 194° |
| 2026-04-28 09:06 | 62.15613 | 10.38779 | 26080 ft | 499 kts | 194° |
| 2026-04-28 09:06 | 62.12214 | 10.37231 | 26331 ft | 500 kts | 194° |
| 2026-04-28 09:06 | 62.08798 | 10.35669 | 26579 ft | 505 kts | 194° |
| 2026-04-28 09:07 | 62.05358 | 10.34102 | 26888 ft | 507 kts | 194° |
| 2026-04-28 09:07 | 62.01894 | 10.32537 | 27174 ft | 509 kts | 194° |
| 2026-04-28 09:07 | 61.98414 | 10.30978 | 27447 ft | 513 kts | 194° |
| 2026-04-28 09:07 | 61.94916 | 10.29413 | 27715 ft | 515 kts | 194° |
| 2026-04-28 09:08 | 61.91397 | 10.27833 | 27964 ft | 517 kts | 194° |
| 2026-04-28 09:08 | 61.87868 | 10.26246 | 28207 ft | 520 kts | 194° |
| 2026-04-28 09:08 | 61.84327 | 10.24653 | 28389 ft | 521 kts | 194° |
| 2026-04-28 09:08 | 61.80767 | 10.23055 | 28617 ft | 524 kts | 193° |
| 2026-04-28 09:09 | 61.77190 | 10.21451 | 28850 ft | 527 kts | 193° |
| 2026-04-28 09:09 | 61.73598 | 10.19854 | 29094 ft | 529 kts | 193° |
| 2026-04-28 09:09 | 61.69982 | 10.18258 | 29324 ft | 531 kts | 193° |
| 2026-04-28 09:09 | 61.66360 | 10.16662 | 29534 ft | 534 kts | 193° |
| 2026-04-28 09:10 | 61.62713 | 10.15059 | 29749 ft | 536 kts | 193° |
| 2026-04-28 09:10 | 61.59058 | 10.13457 | 30054 ft | 537 kts | 193° |
| 2026-04-28 09:10 | 61.55405 | 10.11856 | 30371 ft | 537 kts | 193° |
| 2026-04-28 09:10 | 61.51745 | 10.10248 | 30613 ft | 537 kts | 193° |
| 2026-04-28 09:11 | 61.48089 | 10.08644 | 30914 ft | 536 kts | 193° |
| 2026-04-28 09:11 | 61.44437 | 10.07048 | 31192 ft | 536 kts | 193° |
| 2026-04-28 09:11 | 61.40834 | 10.05484 | 31500 ft | 535 kts | 193° |
| 2026-04-28 09:11 | 61.37185 | 10.03906 | 31799 ft | 535 kts | 193° |
| 2026-04-28 09:12 | 61.33542 | 10.02332 | 32079 ft | 535 kts | 193° |
| 2026-04-28 09:12 | 61.29851 | 10.00743 | 32419 ft | 534 kts | 193° |
| 2026-04-28 09:12 | 61.26268 | 9.99198 | 32734 ft | 533 kts | 193° |
| 2026-04-28 09:12 | 61.22630 | 9.97633 | 33065 ft | 532 kts | 193° |
| 2026-04-28 09:13 | 61.19007 | 9.96082 | 33364 ft | 531 kts | 193° |
| 2026-04-28 09:13 | 61.15389 | 9.94537 | 33659 ft | 531 kts | 193° |
| 2026-04-28 09:13 | 61.11772 | 9.92998 | 33950 ft | 531 kts | 193° |
| 2026-04-28 09:13 | 61.08159 | 9.91469 | 34244 ft | 530 kts | 193° |
| 2026-04-28 09:14 | 61.04542 | 9.89942 | 34421 ft | 529 kts | 193° |
| 2026-04-28 09:14 | 60.97364 | 9.86912 | 34442 ft | 525 kts | 193° |
| 2026-04-28 09:15 | 60.90203 | 9.83886 | 34443 ft | 525 kts | 193° |
| 2026-04-28 09:15 | 60.83039 | 9.80880 | 34451 ft | 525 kts | 193° |
| 2026-04-28 09:16 | 60.75872 | 9.77875 | 34455 ft | 526 kts | 193° |
| 2026-04-28 09:16 | 60.68708 | 9.74903 | 34419 ft | 525 kts | 193° |
| 2026-04-28 09:17 | 60.61527 | 9.71941 | 34418 ft | 526 kts | 193° |
| 2026-04-28 09:17 | 60.54353 | 9.68989 | 34427 ft | 526 kts | 193° |
| 2026-04-28 09:18 | 60.47179 | 9.66054 | 34426 ft | 526 kts | 193° |
| 2026-04-28 09:18 | 60.40057 | 9.63139 | 34440 ft | 526 kts | 193° |
| 2026-04-28 09:19 | 60.32887 | 9.60228 | 34423 ft | 526 kts | 192° |
| 2026-04-28 09:19 | 60.25706 | 9.57332 | 34425 ft | 526 kts | 192° |
| 2026-04-28 09:20 | 60.18523 | 9.54426 | 34437 ft | 527 kts | 192° |
| 2026-04-28 09:20 | 60.11332 | 9.51546 | 34442 ft | 527 kts | 192° |
| 2026-04-28 09:21 | 60.04133 | 9.48677 | 34454 ft | 528 kts | 192° |
| 2026-04-28 09:21 | 59.96936 | 9.45818 | 34443 ft | 527 kts | 192° |
| 2026-04-28 09:22 | 59.89742 | 9.42975 | 34438 ft | 527 kts | 192° |
| 2026-04-28 09:22 | 59.82547 | 9.40147 | 34444 ft | 527 kts | 192° |
| 2026-04-28 09:23 | 59.75357 | 9.37327 | 34462 ft | 527 kts | 192° |
| 2026-04-28 09:23 | 59.68160 | 9.34510 | 34482 ft | 527 kts | 192° |
| 2026-04-28 09:24 | 59.60956 | 9.31707 | 34487 ft | 527 kts | 192° |
| 2026-04-28 09:24 | 59.53756 | 9.28929 | 34481 ft | 527 kts | 191° |
| 2026-04-28 09:25 | 59.46559 | 9.26156 | 34487 ft | 527 kts | 191° |
| 2026-04-28 09:25 | 59.39361 | 9.23403 | 34483 ft | 527 kts | 191° |
| 2026-04-28 09:26 | 59.32159 | 9.20654 | 34478 ft | 527 kts | 191° |
| 2026-04-28 09:26 | 59.24966 | 9.17919 | 34475 ft | 527 kts | 191° |
| 2026-04-28 09:27 | 59.14161 | 9.13838 | 34489 ft | 527 kts | 191° |
| 2026-04-28 09:27 | 59.06963 | 9.11127 | 34491 ft | 527 kts | 191° |
| 2026-04-28 09:28 | 58.99810 | 9.08452 | 34488 ft | 527 kts | 191° |
| 2026-04-28 09:28 | 58.92593 | 9.05769 | 34504 ft | 528 kts | 191° |
| 2026-04-28 09:29 | 58.85386 | 9.03080 | 34509 ft | 528 kts | 191° |
| 2026-04-28 09:29 | 58.78178 | 9.00419 | 34512 ft | 527 kts | 190° |
| 2026-04-28 09:30 | 58.70962 | 8.97763 | 34505 ft | 528 kts | 190° |
| 2026-04-28 09:30 | 58.63751 | 8.95120 | 34514 ft | 527 kts | 190° |
| 2026-04-28 09:31 | 58.56554 | 8.92500 | 34517 ft | 527 kts | 190° |
| 2026-04-28 09:31 | 58.49349 | 8.89870 | 34517 ft | 527 kts | 190° |
| 2026-04-28 09:32 | 58.42158 | 8.87266 | 34509 ft | 526 kts | 190° |
| 2026-04-28 09:32 | 58.34970 | 8.84675 | 34510 ft | 525 kts | 190° |
| 2026-04-28 09:33 | 58.27822 | 8.82116 | 34506 ft | 525 kts | 190° |
| 2026-04-28 09:33 | 58.20632 | 8.79542 | 34506 ft | 526 kts | 190° |
| 2026-04-28 09:34 | 58.13442 | 8.76972 | 34506 ft | 526 kts | 189° |
| 2026-04-28 09:34 | 58.06255 | 8.74420 | 34513 ft | 525 kts | 189° |
| 2026-04-28 09:35 | 57.99063 | 8.71889 | 34511 ft | 525 kts | 189° |
| 2026-04-28 09:35 | 57.91928 | 8.69383 | 34508 ft | 525 kts | 189° |
| 2026-04-28 09:36 | 57.84752 | 8.66853 | 34506 ft | 524 kts | 189° |
| 2026-04-28 09:36 | 57.77585 | 8.64348 | 34510 ft | 524 kts | 189° |
| 2026-04-28 09:37 | 57.70409 | 8.61869 | 34506 ft | 524 kts | 189° |
| 2026-04-28 09:37 | 57.63240 | 8.59397 | 34498 ft | 523 kts | 189° |
| 2026-04-28 09:38 | 57.56118 | 8.56930 | 34513 ft | 523 kts | 189° |
| 2026-04-28 09:38 | 57.48965 | 8.54476 | 34513 ft | 522 kts | 188° |
| 2026-04-28 09:39 | 57.41811 | 8.52035 | 34504 ft | 522 kts | 189° |
| 2026-04-28 09:39 | 57.34665 | 8.49588 | 34502 ft | 522 kts | 188° |
| 2026-04-28 09:40 | 57.27532 | 8.47164 | 34504 ft | 521 kts | 188° |
| 2026-04-28 09:40 | 57.20410 | 8.44757 | 34501 ft | 520 kts | 188° |
| 2026-04-28 09:41 | 57.13294 | 8.42368 | 34500 ft | 520 kts | 188° |
| 2026-04-28 09:41 | 57.06182 | 8.40001 | 34497 ft | 519 kts | 188° |
| 2026-04-28 09:42 | 56.99079 | 8.37624 | 34500 ft | 518 kts | 188° |
| 2026-04-28 09:42 | 56.91987 | 8.35250 | 34500 ft | 518 kts | 188° |
| 2026-04-28 09:43 | 56.84904 | 8.32894 | 34495 ft | 517 kts | 188° |
| 2026-04-28 09:43 | 56.77835 | 8.30558 | 34499 ft | 516 kts | 188° |
| 2026-04-28 09:44 | 56.70818 | 8.28254 | 34495 ft | 515 kts | 187° |
| 2026-04-28 09:44 | 56.63712 | 8.25928 | 34498 ft | 515 kts | 187° |
| 2026-04-28 09:45 | 56.56667 | 8.23619 | 34498 ft | 515 kts | 187° |
| 2026-04-28 09:45 | 56.49673 | 8.21356 | 34506 ft | 513 kts | 187° |
| 2026-04-28 09:46 | 56.42646 | 8.19096 | 34502 ft | 512 kts | 187° |
| 2026-04-28 09:46 | 56.35634 | 8.16818 | 34495 ft | 511 kts | 187° |
| 2026-04-28 09:47 | 56.28634 | 8.14553 | 34497 ft | 511 kts | 187° |
| 2026-04-28 09:47 | 56.21651 | 8.12321 | 34497 ft | 509 kts | 187° |
| 2026-04-28 09:48 | 56.14685 | 8.10109 | 34488 ft | 508 kts | 187° |
| 2026-04-28 09:48 | 56.07726 | 8.07917 | 34487 ft | 508 kts | 187° |
| 2026-04-28 09:49 | 56.00768 | 8.05702 | 34495 ft | 507 kts | 187° |
| 2026-04-28 09:49 | 55.93830 | 8.03507 | 34493 ft | 506 kts | 187° |
| 2026-04-28 09:50 | 55.86899 | 8.01333 | 34495 ft | 505 kts | 187° |